Time,TemperatureF,DewpointF,PressureIn,WindDirection,WindDirectionDegrees,WindSpeedMPH,WindSpeedGustMPH,Humidity,HourlyPrecipIn,Conditions,Clouds,dailyrainin,SoftwareType,DateUTC
2013-04-06 00:00:00,60.8,55.1,30.02,NE,45,2.2,5.1,81,0.00,,,0.03,WUHU216HW,2013-04-06 04:00:00,
2013-04-06 00:05:00,60.7,54.9,30.02,ENE,68,0.7,3.6,81,0.00,,,0.00,WUHU216HW,2013-04-06 04:05:00,
2013-04-06 00:10:00,60.7,54.9,30.02,NE,45,2.9,7.6,81,0.00,,,0.00,WUHU216HW,2013-04-06 04:10:00,
2013-04-06 00:15:00,60.5,55.0,30.03,NNE,23,3.4,7.6,82,0.00,,,0.00,WUHU216HW,2013-04-06 04:15:00,
2013-04-06 00:20:00,60.1,55.0,30.03,NNW,338,4.7,5.8,83,0.00,,,0.00,WUHU216HW,2013-04-06 04:20:00,
2013-04-06 00:25:00,59.4,54.5,30.03,NE,45,2.5,5.8,84,0.00,,,0.00,WUHU216HW,2013-04-06 04:25:00,
2013-04-06 00:30:00,59.0,54.5,30.03,North,0,1.8,5.4,85,0.00,,,0.00,WUHU216HW,2013-04-06 04:30:00,
2013-04-06 00:35:00,58.9,54.7,30.03,North,0,1.8,5.4,86,0.00,,,0.00,WUHU216HW,2013-04-06 04:35:00,
2013-04-06 00:40:00,58.7,54.8,30.03,NE,45,2.5,3.8,87,0.00,,,0.00,WUHU216HW,2013-04-06 04:40:00,
2013-04-06 00:45:00,58.3,54.5,30.03,NNE,23,1.1,3.8,87,0.00,,,0.00,WUHU216HW,2013-04-06 04:45:00,
2013-04-06 00:50:00,58.3,54.5,30.03,North,0,0.4,3.4,87,0.00,,,0.00,WUHU216HW,2013-04-06 04:50:00,
2013-04-06 00:55:00,58.3,54.5,30.04,NW,315,2.5,2.5,87,0.00,,,0.00,WUHU216HW,2013-04-06 04:55:00,
2013-04-06 01:00:00,58.3,54.2,30.04,North,0,2.0,5.4,86,0.00,,,0.00,WUHU216HW,2013-04-06 05:00:00,
2013-04-06 01:05:00,58.3,54.2,30.04,NNW,338,0.9,5.4,86,0.00,,,0.00,WUHU216HW,2013-04-06 05:05:00,
2013-04-06 01:10:00,58.3,54.2,30.04,North,0,1.6,3.1,86,0.00,,,0.00,WUHU216HW,2013-04-06 05:10:00,
2013-04-06 01:15:00,58.3,54.2,30.04,North,0,1.8,3.1,86,0.00,,,0.00,WUHU216HW,2013-04-06 05:15:00,
2013-04-06 01:20:00,58.1,53.6,30.04,NE,45,0.7,2.7,85,0.00,,,0.00,WUHU216HW,2013-04-06 05:20:00,
2013-04-06 01:25:00,58.1,53.6,30.04,North,0,1.3,2.9,85,0.00,,,0.00,WUHU216HW,2013-04-06 05:25:00,
2013-04-06 01:30:00,58.3,53.8,30.04,North,0,1.6,2.9,85,0.00,,,0.00,WUHU216HW,2013-04-06 05:30:00,
2013-04-06 01:35:00,58.3,53.5,30.04,NNE,23,1.1,2.5,84,0.00,,,0.00,WUHU216HW,2013-04-06 05:35:00,
2013-04-06 01:40:00,58.1,53.3,30.04,SSE,158,2.0,3.1,84,0.00,,,0.00,WUHU216HW,2013-04-06 05:40:00,
2013-04-06 01:45:00,58.1,53.0,30.04,East,90,2.0,3.1,83,0.00,,,0.00,WUHU216HW,2013-04-06 05:45:00,
2013-04-06 01:50:00,58.1,53.0,30.03,NNE,23,2.7,2.7,83,0.00,,,0.00,WUHU216HW,2013-04-06 05:50:00,
2013-04-06 01:55:00,58.0,52.8,30.04,NE,45,1.6,5.8,83,0.00,,,0.00,WUHU216HW,2013-04-06 05:55:00,
2013-04-06 02:00:00,58.0,52.8,30.04,NE,45,1.1,5.8,83,0.00,,,0.00,WUHU216HW,2013-04-06 06:00:00,
2013-04-06 02:05:00,58.0,52.8,30.04,NNE,23,3.4,3.4,83,0.00,,,0.00,WUHU216HW,2013-04-06 06:05:00,
2013-04-06 02:10:00,58.0,52.8,30.03,ENE,68,0.4,3.4,83,0.00,,,0.00,WUHU216HW,2013-04-06 06:10:00,
2013-04-06 02:15:00,58.0,52.8,30.03,NE,45,0.9,3.1,83,0.00,,,0.00,WUHU216HW,2013-04-06 06:15:00,
2013-04-06 02:20:00,58.0,52.8,30.03,NNW,338,1.6,4.9,83,0.00,,,0.00,WUHU216HW,2013-04-06 06:20:00,
2013-04-06 02:25:00,58.0,52.8,30.03,NNE,23,0.4,4.9,83,0.00,,,0.00,WUHU216HW,2013-04-06 06:25:00,
2013-04-06 02:30:00,57.8,52.7,30.03,North,0,2.2,2.9,83,0.00,,,0.00,WUHU216HW,2013-04-06 06:30:00,
2013-04-06 02:35:00,57.8,52.7,30.03,East,90,1.8,2.9,83,0.00,,,0.00,WUHU216HW,2013-04-06 06:35:00,
2013-04-06 02:40:00,57.8,52.7,30.03,North,0,0.0,2.9,83,0.00,,,0.00,WUHU216HW,2013-04-06 06:40:00,
2013-04-06 02:45:00,58.0,52.8,30.03,East,90,1.8,1.8,83,0.00,,,0.00,WUHU216HW,2013-04-06 06:45:00,
2013-04-06 02:50:00,57.8,52.7,30.03,NE,45,1.1,1.8,83,0.00,,,0.00,WUHU216HW,2013-04-06 06:50:00,
2013-04-06 02:56:00,57.8,52.7,30.03,NE,45,1.1,1.8,83,0.00,,,0.00,WUHU216HW,2013-04-06 06:56:00,
2013-04-06 03:01:00,57.8,52.7,30.03,NE,45,1.1,1.8,83,0.00,,,0.00,WUHU216HW,2013-04-06 07:01:00,
2013-04-06 03:06:00,57.8,52.7,30.03,ENE,68,0.7,1.8,83,0.00,,,0.00,WUHU216HW,2013-04-06 07:06:00,
2013-04-06 03:11:00,57.8,52.7,30.02,ENE,68,2.2,2.2,83,0.00,,,0.00,WUHU216HW,2013-04-06 07:11:00,
2013-04-06 03:16:00,57.8,52.7,30.02,North,0,1.8,2.2,83,0.00,,,0.00,WUHU216HW,2013-04-06 07:16:00,
2013-04-06 03:21:00,57.8,52.7,30.03,NE,45,0.0,1.8,83,0.00,,,0.00,WUHU216HW,2013-04-06 07:21:00,
2013-04-06 03:26:00,57.8,52.7,30.03,NNE,23,1.1,1.8,83,0.00,,,0.00,WUHU216HW,2013-04-06 07:26:00,
2013-04-06 03:31:00,58.0,52.8,30.03,NNE,23,0.4,2.5,83,0.00,,,0.00,WUHU216HW,2013-04-06 07:31:00,
2013-04-06 03:36:00,57.8,52.7,30.03,NE,45,1.3,2.5,83,0.00,,,0.00,WUHU216HW,2013-04-06 07:36:00,
2013-04-06 03:41:00,57.8,52.7,30.03,North,0,1.1,1.6,83,0.00,,,0.00,WUHU216HW,2013-04-06 07:41:00,
2013-04-06 03:46:00,57.6,52.5,30.03,ENE,68,0.9,1.6,83,0.00,,,0.00,WUHU216HW,2013-04-06 07:46:00,
2013-04-06 03:51:00,57.8,52.7,30.03,NW,315,0.7,1.3,83,0.00,,,0.00,WUHU216HW,2013-04-06 07:51:00,
2013-04-06 03:56:00,57.8,52.7,30.03,East,90,0.7,1.1,83,0.00,,,0.00,WUHU216HW,2013-04-06 07:56:00,
2013-04-06 04:01:00,57.8,52.7,30.03,NE,45,1.3,1.3,83,0.00,,,0.00,WUHU216HW,2013-04-06 08:01:00,
2013-04-06 04:06:00,57.8,52.7,30.03,NE,45,0.7,1.3,83,0.00,,,0.00,WUHU216HW,2013-04-06 08:06:00,
2013-04-06 04:11:00,57.8,52.3,30.03,NNE,23,0.2,1.8,82,0.00,,,0.00,WUHU216HW,2013-04-06 08:11:00,
2013-04-06 04:16:00,57.8,52.3,30.02,NNE,23,0.2,1.8,82,0.00,,,0.00,WUHU216HW,2013-04-06 08:16:00,
2013-04-06 04:21:00,57.8,52.3,30.02,NE,45,0.2,2.0,82,0.00,,,0.00,WUHU216HW,2013-04-06 08:21:00,
2013-04-06 04:26:00,57.8,52.3,30.02,North,0,1.1,2.0,82,0.00,,,0.00,WUHU216HW,2013-04-06 08:26:00,
2013-04-06 04:31:00,57.8,52.3,30.02,NNE,23,0.4,1.6,82,0.00,,,0.00,WUHU216HW,2013-04-06 08:31:00,
2013-04-06 04:36:00,57.6,52.1,30.02,North,0,1.1,1.3,82,0.00,,,0.00,WUHU216HW,2013-04-06 08:36:00,
2013-04-06 04:41:00,57.6,52.1,30.03,North,0,1.1,2.5,82,0.00,,,0.00,WUHU216HW,2013-04-06 08:41:00,
2013-04-06 04:46:00,57.6,52.1,30.03,NNE,23,0.4,2.5,82,0.00,,,0.00,WUHU216HW,2013-04-06 08:46:00,
2013-04-06 04:51:00,57.6,52.1,30.03,NNW,338,0.7,2.0,82,0.00,,,0.00,WUHU216HW,2013-04-06 08:51:00,
2013-04-06 04:56:00,57.6,52.1,30.04,NNE,23,1.1,1.6,82,0.00,,,0.00,WUHU216HW,2013-04-06 08:56:00,
2013-04-06 05:01:00,57.6,52.1,30.04,WNW,293,0.0,1.6,82,0.00,,,0.00,WUHU216HW,2013-04-06 09:01:00,
2013-04-06 05:06:00,57.6,52.1,30.04,North,0,0.9,2.0,82,0.00,,,0.00,WUHU216HW,2013-04-06 09:06:00,
2013-04-06 05:11:00,57.6,52.1,30.04,NNW,338,0.7,2.0,82,0.00,,,0.00,WUHU216HW,2013-04-06 09:11:00,
2013-04-06 05:16:00,57.6,51.9,30.04,NNE,23,1.3,2.0,81,0.00,,,0.00,WUHU216HW,2013-04-06 09:16:00,
2013-04-06 05:21:00,57.6,52.1,30.05,North,0,0.4,2.0,82,0.00,,,0.00,WUHU216HW,2013-04-06 09:21:00,
2013-04-06 05:26:00,57.6,52.1,30.05,NNW,338,1.8,1.8,82,0.00,,,0.00,WUHU216HW,2013-04-06 09:26:00,
2013-04-06 05:31:00,57.6,52.1,30.05,NNW,338,1.6,1.8,82,0.00,,,0.00,WUHU216HW,2013-04-06 09:31:00,
2013-04-06 05:36:00,57.4,51.9,30.05,NNE,23,1.6,2.0,82,0.00,,,0.00,WUHU216HW,2013-04-06 09:36:00,
2013-04-06 05:42:00,57.4,51.9,30.05,North,0,0.9,2.0,82,0.00,,,0.00,WUHU216HW,2013-04-06 09:42:00,
2013-04-06 05:47:00,57.4,51.9,30.05,NNW,338,0.4,2.2,82,0.00,,,0.00,WUHU216HW,2013-04-06 09:47:00,
2013-04-06 05:52:00,57.2,51.8,30.05,NNW,338,1.8,3.4,82,0.00,,,0.00,WUHU216HW,2013-04-06 09:52:00,
2013-04-06 05:57:00,57.2,51.8,30.05,North,0,1.8,3.4,82,0.00,,,0.00,WUHU216HW,2013-04-06 09:57:00,
2013-04-06 06:02:00,56.9,51.1,30.05,NNE,23,0.9,4.0,81,0.00,,,0.00,WUHU216HW,2013-04-06 10:02:00,
2013-04-06 06:07:00,56.7,51.2,30.05,ENE,68,0.7,4.0,82,0.00,,,0.00,WUHU216HW,2013-04-06 10:07:00,
2013-04-06 06:12:00,56.7,51.2,30.05,NNW,338,3.1,3.6,82,0.00,,,0.00,WUHU216HW,2013-04-06 10:12:00,
2013-04-06 06:17:00,56.5,51.0,30.05,North,0,2.0,3.8,82,0.00,,,0.00,WUHU216HW,2013-04-06 10:17:00,
2013-04-06 06:22:00,56.5,50.8,30.05,ENE,68,1.1,3.8,81,0.00,,,0.00,WUHU216HW,2013-04-06 10:22:00,
2013-04-06 06:27:00,56.3,50.6,30.05,NNE,23,0.0,3.4,81,0.00,,,0.00,WUHU216HW,2013-04-06 10:27:00,
2013-04-06 06:32:00,56.2,50.4,30.05,North,0,2.2,3.4,81,0.00,,,0.00,WUHU216HW,2013-04-06 10:32:00,
2013-04-06 06:37:00,56.0,50.5,30.05,WNW,293,0.4,2.5,82,0.00,,,0.00,WUHU216HW,2013-04-06 10:37:00,
2013-04-06 06:42:00,55.8,50.3,30.05,North,0,1.1,2.5,82,0.00,,,0.00,WUHU216HW,2013-04-06 10:42:00,
2013-04-06 06:47:00,55.4,50.0,30.05,NNW,338,0.9,1.1,82,0.00,,,0.00,WUHU216HW,2013-04-06 10:47:00,
2013-04-06 06:52:00,55.3,49.8,30.06,NW,315,0.7,1.1,82,0.00,,,0.00,WUHU216HW,2013-04-06 10:52:00,
2013-04-06 06:57:00,55.1,50.0,30.06,NNW,338,1.6,1.6,83,0.00,,,0.00,WUHU216HW,2013-04-06 10:57:00,
2013-04-06 07:02:00,54.7,49.6,30.07,NW,315,1.1,2.2,83,0.00,,,0.00,WUHU216HW,2013-04-06 11:02:00,
2013-04-06 07:07:00,54.5,49.8,30.07,NNE,23,0.7,2.2,84,0.00,,,0.00,WUHU216HW,2013-04-06 11:07:00,
2013-04-06 07:12:00,54.4,49.6,30.08,NNW,338,1.1,1.6,84,0.00,,,0.00,WUHU216HW,2013-04-06 11:12:00,
2013-04-06 07:17:00,54.2,49.8,30.08,North,0,1.8,1.8,85,0.00,,,0.00,WUHU216HW,2013-04-06 11:17:00,
2013-04-06 07:22:00,54.0,49.6,30.08,WNW,293,0.4,1.8,85,0.00,,,0.00,WUHU216HW,2013-04-06 11:22:00,
2013-04-06 07:27:00,54.0,49.9,30.08,NW,315,1.1,1.8,86,0.00,,,0.00,WUHU216HW,2013-04-06 11:27:00,
2013-04-06 07:32:00,53.8,49.7,30.08,North,0,0.7,1.1,86,0.00,,,0.00,WUHU216HW,2013-04-06 11:32:00,
2013-04-06 07:33:00,53.8,49.7,30.08,NNW,338,0.4,1.1,86,0.00,,,0.00,WUHU216HW,2013-04-06 11:33:00,
2013-04-06 07:38:00,53.8,49.7,30.08,NNW,338,0.4,0.9,86,0.00,,,0.00,WUHU216HW,2013-04-06 11:38:00,
2013-04-06 07:43:00,53.6,49.5,30.09,NNW,338,0.4,0.9,86,0.00,,,0.00,WUHU216HW,2013-04-06 11:43:00,
2013-04-06 07:48:00,53.8,49.7,30.09,North,0,0.0,0.7,86,0.00,,,0.00,WUHU216HW,2013-04-06 11:48:00,
2013-04-06 07:53:00,53.8,49.7,30.09,NNW,338,0.4,0.7,86,0.00,,,0.00,WUHU216HW,2013-04-06 11:53:00,
2013-04-06 07:58:00,54.0,49.9,30.09,NNW,338,0.7,0.7,86,0.00,,,0.00,WUHU216HW,2013-04-06 11:58:00,
2013-04-06 08:03:00,54.2,50.0,30.09,NNE,23,0.0,1.8,86,0.00,,,0.00,WUHU216HW,2013-04-06 12:03:00,
2013-04-06 08:08:00,54.7,50.6,30.09,NNE,23,0.2,1.8,86,0.00,,,0.00,WUHU216HW,2013-04-06 12:08:00,
2013-04-06 08:13:00,55.4,50.9,30.10,NNW,338,2.0,2.5,85,0.00,,,0.00,WUHU216HW,2013-04-06 12:13:00,
2013-04-06 08:18:00,55.8,50.9,30.10,NNW,338,2.5,3.4,84,0.00,,,0.00,WUHU216HW,2013-04-06 12:18:00,
2013-04-06 08:23:00,56.3,51.2,30.09,WNW,293,1.6,3.4,83,0.00,,,0.00,WUHU216HW,2013-04-06 12:23:00,
2013-04-06 08:28:00,56.9,51.8,30.09,NNW,338,2.0,3.1,83,0.00,,,0.00,WUHU216HW,2013-04-06 12:28:00,
2013-04-06 08:33:00,57.2,51.8,30.09,North,0,0.7,3.1,82,0.00,,,0.00,WUHU216HW,2013-04-06 12:33:00,
2013-04-06 08:38:00,57.8,52.3,30.09,NNW,338,1.1,2.9,82,0.00,,,0.00,WUHU216HW,2013-04-06 12:38:00,
2013-04-06 08:44:00,58.3,52.2,30.10,North,0,2.5,2.5,80,0.00,,,0.00,WUHU216HW,2013-04-06 12:44:00,
2013-04-06 08:49:00,58.7,52.2,30.10,NNE,23,3.1,4.0,79,0.00,,,0.00,WUHU216HW,2013-04-06 12:49:00,
2013-04-06 08:54:00,59.0,52.6,30.09,NNE,23,2.0,4.0,79,0.00,,,0.00,WUHU216HW,2013-04-06 12:54:00,
2013-04-06 08:59:00,59.4,52.6,30.10,NNW,338,5.4,5.4,78,0.00,,,0.00,WUHU216HW,2013-04-06 12:59:00,
2013-04-06 09:04:00,59.9,52.4,30.09,WNW,293,4.0,5.4,76,0.00,,,0.00,WUHU216HW,2013-04-06 13:04:00,
2013-04-06 09:09:00,60.5,53.3,30.09,NNE,23,0.7,4.0,77,0.00,,,0.00,WUHU216HW,2013-04-06 13:09:00,
2013-04-06 09:15:00,61.6,53.9,30.09,NNW,338,2.5,2.5,76,0.00,,,0.00,WUHU216HW,2013-04-06 13:15:00,
2013-04-06 09:19:00,62.3,53.8,30.09,NW,315,1.6,2.5,74,0.00,,,0.00,WUHU216HW,2013-04-06 13:19:00,
2013-04-06 09:24:00,62.6,53.5,30.09,North,0,1.1,2.7,72,0.00,,,0.00,WUHU216HW,2013-04-06 13:24:00,
2013-04-06 09:30:00,62.8,54.0,30.09,NNE,23,3.1,3.1,73,0.00,,,0.00,WUHU216HW,2013-04-06 13:30:00,
2013-04-06 09:35:00,63.2,54.0,30.09,NNW,338,3.1,3.1,72,0.00,,,0.00,WUHU216HW,2013-04-06 13:35:00,
2013-04-06 09:40:00,63.2,53.6,30.09,North,0,2.5,3.4,71,0.00,,,0.00,WUHU216HW,2013-04-06 13:40:00,
2013-04-06 09:45:00,63.0,53.1,30.09,NNW,338,2.5,4.0,70,0.00,,,0.00,WUHU216HW,2013-04-06 13:45:00,
2013-04-06 09:50:00,63.2,53.6,30.09,North,0,2.5,4.0,71,0.00,,,0.00,WUHU216HW,2013-04-06 13:50:00,
2013-04-06 09:55:00,63.7,53.8,30.09,East,90,2.7,4.0,70,0.00,,,0.00,WUHU216HW,2013-04-06 13:55:00,
2013-04-06 10:00:00,63.7,53.4,30.10,NE,45,2.5,3.8,69,0.00,,,0.00,WUHU216HW,2013-04-06 14:00:00,
2013-04-06 10:05:00,63.5,53.6,30.10,North,0,3.4,3.8,70,0.00,,,0.00,WUHU216HW,2013-04-06 14:05:00,
2013-04-06 10:10:00,63.7,53.8,30.09,NE,45,3.4,3.4,70,0.00,,,0.00,WUHU216HW,2013-04-06 14:10:00,
2013-04-06 10:15:00,64.1,54.2,30.10,NNE,23,1.8,3.4,70,0.00,,,0.00,WUHU216HW,2013-04-06 14:15:00,
2013-04-06 10:20:00,64.4,54.5,30.10,NE,45,0.9,3.4,70,0.00,,,0.00,WUHU216HW,2013-04-06 14:20:00,
2013-04-06 10:25:00,64.8,53.6,30.10,East,90,2.0,6.0,67,0.00,,,0.00,WUHU216HW,2013-04-06 14:25:00,
2013-04-06 10:30:00,64.4,53.3,30.10,ENE,68,3.1,6.0,67,0.00,,,0.00,WUHU216HW,2013-04-06 14:30:00,
2013-04-06 10:35:00,64.4,54.1,30.10,NNE,23,3.6,3.6,69,0.00,,,0.00,WUHU216HW,2013-04-06 14:35:00,
2013-04-06 10:40:00,64.8,54.0,30.10,East,90,3.1,4.7,68,0.00,,,0.00,WUHU216HW,2013-04-06 14:40:00,
2013-04-06 10:45:00,65.2,53.9,30.10,East,90,4.7,4.7,67,0.00,,,0.00,WUHU216HW,2013-04-06 14:45:00,
2013-04-06 10:50:00,65.5,54.3,30.10,NE,45,2.0,4.7,67,0.00,,,0.00,WUHU216HW,2013-04-06 14:50:00,
2013-04-06 10:55:00,65.7,54.5,30.11,NE,45,2.5,3.4,67,0.00,,,0.00,WUHU216HW,2013-04-06 14:55:00,
2013-04-06 11:00:00,65.9,54.5,30.11,NE,45,1.1,4.3,67,0.00,,,0.00,WUHU216HW,2013-04-06 15:00:00,
2013-04-06 11:05:00,66.2,54.9,30.11,North,0,1.1,4.3,67,0.00,,,0.00,WUHU216HW,2013-04-06 15:05:00,
2013-04-06 11:10:00,66.4,54.3,30.11,East,90,1.1,4.9,65,0.00,,,0.00,WUHU216HW,2013-04-06 15:10:00,
2013-04-06 11:15:00,66.6,54.5,30.10,NE,45,2.5,4.9,65,0.00,,,0.00,WUHU216HW,2013-04-06 15:15:00,
2013-04-06 11:20:00,67.0,54.8,30.10,NNE,23,3.4,4.5,65,0.00,,,0.00,WUHU216HW,2013-04-06 15:20:00,
2013-04-06 11:25:00,67.3,55.1,30.10,East,90,2.5,4.5,65,0.00,,,0.00,WUHU216HW,2013-04-06 15:25:00,
2013-04-06 11:30:00,67.3,55.1,30.10,ENE,68,3.4,4.3,65,0.00,,,0.00,WUHU216HW,2013-04-06 15:30:00,
2013-04-06 11:35:00,67.5,55.3,30.10,West,270,0.4,3.4,65,0.00,,,0.00,WUHU216HW,2013-04-06 15:35:00,
2013-04-06 11:40:00,67.7,55.4,30.10,NE,45,0.4,3.4,65,0.00,,,0.00,WUHU216HW,2013-04-06 15:40:00,
2013-04-06 11:45:00,68.4,55.3,30.10,NE,45,4.3,4.3,63,0.00,,,0.00,WUHU216HW,2013-04-06 15:45:00,
2013-04-06 11:50:00,68.6,55.4,30.10,SE,135,1.8,4.3,63,0.00,,,0.00,WUHU216HW,2013-04-06 15:50:00,
2013-04-06 11:55:00,68.9,55.8,30.10,North,0,2.9,3.8,63,0.00,,,0.00,WUHU216HW,2013-04-06 15:55:00,
2013-04-06 12:00:00,69.3,56.2,30.10,NW,315,3.4,3.8,63,0.00,,,0.00,WUHU216HW,2013-04-06 16:00:00,
2013-04-06 12:05:00,69.5,55.9,30.11,ENE,68,2.2,4.3,62,0.00,,,0.00,WUHU216HW,2013-04-06 16:05:00,
2013-04-06 12:10:00,69.7,56.1,30.10,ENE,68,3.6,4.3,62,0.00,,,0.00,WUHU216HW,2013-04-06 16:10:00,
2013-04-06 12:16:00,69.8,56.3,30.10,SE,135,2.0,3.6,62,0.00,,,0.00,WUHU216HW,2013-04-06 16:16:00,
2013-04-06 12:21:00,70.2,55.8,30.10,NE,45,2.7,3.1,60,0.00,,,0.00,WUHU216HW,2013-04-06 16:21:00,
2013-04-06 12:26:00,70.2,55.3,30.10,ENE,68,3.8,6.0,59,0.00,,,0.00,WUHU216HW,2013-04-06 16:26:00,
2013-04-06 12:31:00,70.6,56.1,30.09,NE,45,1.8,6.0,60,0.00,,,0.00,WUHU216HW,2013-04-06 16:31:00,
2013-04-06 12:36:00,70.6,56.1,30.10,NE,45,1.1,4.0,60,0.00,,,0.00,WUHU216HW,2013-04-06 16:36:00,
2013-04-06 12:41:00,70.7,55.7,30.10,East,90,4.7,5.6,59,0.00,,,0.00,WUHU216HW,2013-04-06 16:41:00,
2013-04-06 12:46:00,70.9,56.4,30.10,NNW,338,1.8,5.6,60,0.00,,,0.00,WUHU216HW,2013-04-06 16:46:00,
2013-04-06 12:51:00,71.3,56.3,30.10,ESE,113,1.8,4.0,59,0.00,,,0.00,WUHU216HW,2013-04-06 16:51:00,
2013-04-06 12:56:00,71.6,56.5,30.10,NNW,338,0.7,4.9,59,0.00,,,0.00,WUHU216HW,2013-04-06 16:56:00,
2013-04-06 13:01:00,72.0,57.8,30.09,SSW,203,2.5,4.9,61,0.00,,,0.00,WUHU216HW,2013-04-06 17:01:00,
2013-04-06 13:06:00,72.4,56.7,30.09,ENE,68,1.8,3.1,58,0.00,,,0.00,WUHU216HW,2013-04-06 17:06:00,
2013-04-06 13:11:00,72.5,57.3,30.09,NNW,338,2.7,4.3,59,0.00,,,0.00,WUHU216HW,2013-04-06 17:11:00,
2013-04-06 13:16:00,72.7,56.5,30.08,NNE,23,3.4,3.4,57,0.00,,,0.00,WUHU216HW,2013-04-06 17:16:00,
2013-04-06 13:21:00,72.7,56.0,30.08,East,90,2.5,7.2,56,0.00,,,0.00,WUHU216HW,2013-04-06 17:21:00,
2013-04-06 13:26:00,73.1,56.3,30.08,East,90,4.7,7.2,56,0.00,,,0.00,WUHU216HW,2013-04-06 17:26:00,
2013-04-06 13:31:00,73.3,57.0,30.08,NE,45,0.4,4.7,57,0.00,,,0.00,WUHU216HW,2013-04-06 17:31:00,
2013-04-06 13:36:00,73.4,56.7,30.08,NNE,23,7.8,7.8,56,0.00,,,0.00,WUHU216HW,2013-04-06 17:36:00,
2013-04-06 13:41:00,73.8,57.1,30.08,East,90,1.8,7.8,56,0.00,,,0.00,WUHU216HW,2013-04-06 17:41:00,
2013-04-06 13:46:00,74.2,58.4,30.08,West,270,1.3,3.4,58,0.00,,,0.00,WUHU216HW,2013-04-06 17:46:00,
2013-04-06 13:51:00,74.5,56.7,30.08,ENE,68,2.7,4.9,54,0.00,,,0.00,WUHU216HW,2013-04-06 17:51:00,
2013-04-06 13:56:00,74.9,57.1,30.08,North,0,2.5,4.9,54,0.00,,,0.00,WUHU216HW,2013-04-06 17:56:00,
2013-04-06 14:01:00,75.1,56.8,30.08,ENE,68,0.7,6.5,53,0.00,,,0.00,WUHU216HW,2013-04-06 18:01:00,
2013-04-06 14:07:00,75.1,56.8,30.08,NE,45,2.5,6.5,53,0.00,,,0.00,WUHU216HW,2013-04-06 18:07:00,
2013-04-06 14:12:00,75.2,56.4,30.08,SSE,158,3.1,6.5,52,0.00,,,0.00,WUHU216HW,2013-04-06 18:12:00,
2013-04-06 14:17:00,75.6,57.2,30.08,ESE,113,2.7,3.1,53,0.00,,,0.00,WUHU216HW,2013-04-06 18:17:00,
2013-04-06 14:22:00,75.8,56.4,30.08,East,90,1.8,4.0,51,0.00,,,0.00,WUHU216HW,2013-04-06 18:22:00,
2013-04-06 14:27:00,75.8,55.9,30.08,East,90,2.0,4.0,50,0.00,,,0.00,WUHU216HW,2013-04-06 18:27:00,
2013-04-06 14:32:00,76.0,56.1,30.08,ESE,113,5.1,5.1,50,0.00,,,0.00,WUHU216HW,2013-04-06 18:32:00,
2013-04-06 14:37:00,76.3,56.9,30.08,South,180,4.7,5.1,51,0.00,,,0.00,WUHU216HW,2013-04-06 18:37:00,
2013-04-06 14:42:00,76.7,56.7,30.08,East,90,2.7,4.9,50,0.00,,,0.00,WUHU216HW,2013-04-06 18:42:00,
2013-04-06 14:47:00,76.9,56.3,30.08,NE,45,2.7,4.0,49,0.00,,,0.00,WUHU216HW,2013-04-06 18:47:00,
2013-04-06 14:52:00,77.0,57.1,30.08,SE,135,2.7,3.8,50,0.00,,,0.00,WUHU216HW,2013-04-06 18:52:00,
2013-04-06 14:57:00,77.0,57.1,30.08,ENE,68,1.1,3.4,50,0.00,,,0.00,WUHU216HW,2013-04-06 18:57:00,
2013-04-06 15:02:00,77.2,57.3,30.08,SE,135,2.5,3.1,50,0.00,,,0.00,WUHU216HW,2013-04-06 19:02:00,
2013-04-06 15:07:00,77.8,57.1,30.07,NE,45,1.1,3.8,49,0.00,,,0.00,WUHU216HW,2013-04-06 19:07:00,
2013-04-06 15:12:00,77.2,57.3,30.08,East,90,1.8,3.8,50,0.00,,,0.00,WUHU216HW,2013-04-06 19:12:00,
2013-04-06 15:17:00,77.0,56.4,30.08,NNE,23,1.8,2.5,49,0.00,,,0.00,WUHU216HW,2013-04-06 19:17:00,
2013-04-06 15:22:00,77.4,56.2,30.08,NNW,338,3.8,4.7,48,0.00,,,0.00,WUHU216HW,2013-04-06 19:22:00,
2013-04-06 15:27:00,77.6,56.4,30.07,NE,45,0.7,4.7,48,0.00,,,0.00,WUHU216HW,2013-04-06 19:27:00,
2013-04-06 15:32:00,77.9,57.2,30.07,WNW,293,0.9,2.9,49,0.00,,,0.00,WUHU216HW,2013-04-06 19:32:00,
2013-04-06 15:37:00,77.8,55.9,30.08,NE,45,2.5,2.9,47,0.00,,,0.00,WUHU216HW,2013-04-06 19:37:00,
2013-04-06 15:42:00,77.8,56.5,30.07,NNE,23,2.0,3.6,48,0.00,,,0.00,WUHU216HW,2013-04-06 19:42:00,
2013-04-06 15:47:00,78.3,57.6,30.07,SSW,203,1.8,3.6,49,0.00,,,0.00,WUHU216HW,2013-04-06 19:47:00,
2013-04-06 15:52:00,78.3,56.3,30.08,ENE,68,2.0,4.5,47,0.00,,,0.00,WUHU216HW,2013-04-06 19:52:00,
2013-04-06 15:57:00,77.8,55.9,30.07,ENE,68,3.1,4.5,47,0.00,,,0.00,WUHU216HW,2013-04-06 19:57:00,
2013-04-06 16:02:00,77.0,55.8,30.07,NE,45,1.1,4.0,48,0.00,,,0.00,WUHU216HW,2013-04-06 20:02:00,
2013-04-06 16:07:00,77.6,57.5,30.06,SSW,203,3.6,3.6,50,0.00,,,0.00,WUHU216HW,2013-04-06 20:07:00,
2013-04-06 16:12:00,78.7,56.7,30.07,East,90,2.2,4.0,47,0.00,,,0.00,WUHU216HW,2013-04-06 20:12:00,
2013-04-06 16:17:00,79.2,56.0,30.07,ENE,68,2.5,4.0,45,0.00,,,0.00,WUHU216HW,2013-04-06 20:17:00,
2013-04-06 16:22:00,79.2,57.2,30.06,ENE,68,1.8,3.1,47,0.00,,,0.00,WUHU216HW,2013-04-06 20:22:00,
2013-04-06 16:27:00,79.4,56.7,30.06,ENE,68,1.6,4.0,46,0.00,,,0.00,WUHU216HW,2013-04-06 20:27:00,
2013-04-06 16:32:00,78.8,56.9,30.06,ENE,68,1.3,4.0,47,0.00,,,0.00,WUHU216HW,2013-04-06 20:32:00,
2013-04-06 16:37:00,78.1,56.2,30.06,East,90,1.1,3.6,47,0.00,,,0.00,WUHU216HW,2013-04-06 20:37:00,
2013-04-06 16:42:00,78.7,56.7,30.05,South,180,0.7,3.6,47,0.00,,,0.00,WUHU216HW,2013-04-06 20:42:00,
2013-04-06 16:47:00,79.4,56.1,30.06,ESE,113,2.9,3.6,45,0.00,,,0.00,WUHU216HW,2013-04-06 20:47:00,
2013-04-06 16:52:00,79.7,55.8,30.06,NE,45,1.3,3.4,44,0.00,,,0.00,WUHU216HW,2013-04-06 20:52:00,
2013-04-06 16:57:00,78.8,55.0,30.06,ENE,68,3.4,4.0,44,0.00,,,0.00,WUHU216HW,2013-04-06 20:57:00,
2013-04-06 17:02:00,78.1,55.0,30.06,ENE,68,1.6,4.0,45,0.00,,,0.00,WUHU216HW,2013-04-06 21:02:00,
2013-04-06 17:07:00,78.1,56.2,30.06,East,90,1.6,3.6,47,0.00,,,0.00,WUHU216HW,2013-04-06 21:07:00,
2013-04-06 17:13:00,78.3,55.2,30.06,East,90,1.1,3.6,45,0.00,,,0.00,WUHU216HW,2013-04-06 21:13:00,
2013-04-06 17:18:00,77.8,54.6,30.06,ENE,68,2.9,4.5,45,0.00,,,0.00,WUHU216HW,2013-04-06 21:18:00,
2013-04-06 17:22:00,77.8,55.3,30.06,ESE,113,1.1,4.5,46,0.00,,,0.00,WUHU216HW,2013-04-06 21:22:00,
2013-04-06 17:28:00,77.8,55.3,30.06,SSE,158,2.9,2.9,46,0.00,,,0.00,WUHU216HW,2013-04-06 21:28:00,
2013-04-06 17:33:00,77.9,56.1,30.06,ENE,68,2.0,4.0,47,0.00,,,0.00,WUHU216HW,2013-04-06 21:33:00,
2013-04-06 17:37:00,78.1,55.6,30.06,ESE,113,2.0,4.0,46,0.00,,,0.00,WUHU216HW,2013-04-06 21:37:00,
2013-04-06 17:43:00,77.9,54.2,30.06,ENE,68,3.4,4.5,44,0.00,,,0.00,WUHU216HW,2013-04-06 21:43:00,
2013-04-06 17:47:00,77.2,54.2,30.06,NNE,23,2.5,4.5,45,0.00,,,0.00,WUHU216HW,2013-04-06 21:47:00,
2013-04-06 17:52:00,76.7,54.3,30.06,NE,45,2.9,4.0,46,0.00,,,0.00,WUHU216HW,2013-04-06 21:52:00,
2013-04-06 17:58:00,76.7,54.9,30.06,ESE,113,1.8,2.9,47,0.00,,,0.00,WUHU216HW,2013-04-06 21:58:00,
2013-04-06 18:03:00,76.9,55.7,30.06,ENE,68,5.4,5.4,48,0.00,,,0.00,WUHU216HW,2013-04-06 22:03:00,
2013-04-06 18:08:00,77.0,56.4,30.06,North,0,5.1,5.4,49,0.00,,,0.00,WUHU216HW,2013-04-06 22:08:00,
2013-04-06 18:13:00,77.0,55.8,30.07,ESE,113,3.6,5.1,48,0.00,,,0.00,WUHU216HW,2013-04-06 22:13:00,
2013-04-06 18:18:00,76.7,56.2,30.07,NE,45,1.6,4.0,49,0.00,,,0.00,WUHU216HW,2013-04-06 22:18:00,
2013-04-06 18:23:00,76.3,56.4,30.07,East,90,1.8,2.9,50,0.00,,,0.00,WUHU216HW,2013-04-06 22:23:00,
2013-04-06 18:28:00,75.8,56.4,30.07,NE,45,2.5,3.8,51,0.00,,,0.00,WUHU216HW,2013-04-06 22:28:00,
2013-04-06 18:33:00,75.4,56.1,30.08,NE,45,1.8,3.8,51,0.00,,,0.00,WUHU216HW,2013-04-06 22:33:00,
2013-04-06 18:38:00,75.1,56.3,30.08,North,0,0.4,2.5,52,0.00,,,0.00,WUHU216HW,2013-04-06 22:38:00,
2013-04-06 18:43:00,75.1,56.3,30.08,NE,45,2.7,2.7,52,0.00,,,0.00,WUHU216HW,2013-04-06 22:43:00,
2013-04-06 18:48:00,74.9,56.1,30.08,NE,45,2.2,2.7,52,0.00,,,0.00,WUHU216HW,2013-04-06 22:48:00,
2013-04-06 18:53:00,75.1,56.3,30.08,ESE,113,4.0,4.3,52,0.00,,,0.00,WUHU216HW,2013-04-06 22:53:00,
2013-04-06 18:58:00,74.9,56.1,30.08,ESE,113,1.6,4.3,52,0.00,,,0.00,WUHU216HW,2013-04-06 22:58:00,
2013-04-06 19:03:00,74.7,56.4,30.08,ENE,68,2.5,4.0,53,0.00,,,0.00,WUHU216HW,2013-04-06 23:03:00,
2013-04-06 19:08:00,74.7,56.4,30.09,ENE,68,3.1,3.4,53,0.00,,,0.00,WUHU216HW,2013-04-06 23:08:00,
2013-04-06 19:13:00,74.3,56.1,30.08,ENE,68,1.3,3.8,53,0.00,,,0.00,WUHU216HW,2013-04-06 23:13:00,
2013-04-06 19:18:00,74.2,55.9,30.09,NE,45,1.1,3.8,53,0.00,,,0.00,WUHU216HW,2013-04-06 23:18:00,
2013-04-06 19:23:00,73.8,56.0,30.09,ENE,68,3.4,3.4,54,0.00,,,0.00,WUHU216HW,2013-04-06 23:23:00,
2013-04-06 19:28:00,73.6,55.8,30.08,NE,45,1.8,5.4,54,0.00,,,0.00,WUHU216HW,2013-04-06 23:28:00,
2013-04-06 19:33:00,73.4,55.6,30.09,ENE,68,2.5,5.4,54,0.00,,,0.00,WUHU216HW,2013-04-06 23:33:00,
2013-04-06 19:38:00,73.1,55.8,30.08,NE,45,1.6,3.4,55,0.00,,,0.00,WUHU216HW,2013-04-06 23:38:00,
2013-04-06 19:43:00,72.9,55.7,30.09,East,90,2.9,2.9,55,0.00,,,0.00,WUHU216HW,2013-04-06 23:43:00,
2013-04-06 19:48:00,72.7,56.0,30.09,ENE,68,3.6,3.6,56,0.00,,,0.00,WUHU216HW,2013-04-06 23:48:00,
2013-04-06 19:53:00,72.4,55.7,30.09,East,90,2.5,3.6,56,0.00,,,0.00,WUHU216HW,2013-04-06 23:53:00,
2013-04-06 19:58:00,72.2,56.1,30.09,NE,45,3.6,4.0,57,0.00,,,0.00,WUHU216HW,2013-04-06 23:58:00,
2013-04-06 20:03:00,72.0,55.9,30.09,ENE,68,3.1,4.0,57,0.00,,,0.00,WUHU216HW,2013-04-07 00:03:00,
2013-04-06 20:08:00,71.8,56.3,30.10,NE,45,1.8,4.0,58,0.00,,,0.00,WUHU216HW,2013-04-07 00:08:00,
2013-04-06 20:13:00,71.6,56.1,30.10,ENE,68,1.6,4.0,58,0.00,,,0.00,WUHU216HW,2013-04-07 00:13:00,
2013-04-06 20:18:00,71.3,56.3,30.10,ENE,68,1.3,2.9,59,0.00,,,0.00,WUHU216HW,2013-04-07 00:18:00,
2013-04-06 20:23:00,71.1,56.1,30.10,East,90,1.8,2.0,59,0.00,,,0.00,WUHU216HW,2013-04-07 00:23:00,
2013-04-06 20:28:00,70.9,55.9,30.10,NE,45,1.3,2.0,59,0.00,,,0.00,WUHU216HW,2013-04-07 00:28:00,
2013-04-06 20:33:00,70.6,55.6,30.10,NE,45,1.8,1.8,59,0.00,,,0.00,WUHU216HW,2013-04-07 00:33:00,
2013-04-06 20:38:00,70.2,55.8,30.11,NE,45,1.3,1.8,60,0.00,,,0.00,WUHU216HW,2013-04-07 00:38:00,
2013-04-06 20:43:00,70.0,55.6,30.11,NE,45,1.1,3.4,60,0.00,,,0.00,WUHU216HW,2013-04-07 00:43:00,
2013-04-06 20:48:00,69.8,55.9,30.11,NNE,23,1.3,3.4,61,0.00,,,0.00,WUHU216HW,2013-04-07 00:48:00,
2013-04-06 20:53:00,69.7,55.7,30.12,NNE,23,1.8,3.1,61,0.00,,,0.00,WUHU216HW,2013-04-07 00:53:00,
2013-04-06 20:58:00,69.5,55.9,30.12,East,90,1.1,2.2,62,0.00,,,0.00,WUHU216HW,2013-04-07 00:58:00,
2013-04-06 21:03:00,69.1,55.5,30.12,ENE,68,1.8,2.0,62,0.00,,,0.00,WUHU216HW,2013-04-07 01:03:00,
2013-04-06 21:08:00,68.9,55.8,30.12,East,90,1.1,2.0,63,0.00,,,0.00,WUHU216HW,2013-04-07 01:08:00,
2013-04-06 21:13:00,68.8,55.6,30.11,East,90,1.8,2.2,63,0.00,,,0.00,WUHU216HW,2013-04-07 01:13:00,
2013-04-06 21:18:00,68.6,55.9,30.11,ENE,68,1.8,2.5,64,0.00,,,0.00,WUHU216HW,2013-04-07 01:18:00,
2013-04-06 21:23:00,68.4,55.7,30.12,ENE,68,1.8,2.5,64,0.00,,,0.00,WUHU216HW,2013-04-07 01:23:00,
2013-04-06 21:28:00,68.2,55.5,30.12,ENE,68,0.9,1.8,64,0.00,,,0.00,WUHU216HW,2013-04-07 01:28:00,
2013-04-06 21:33:00,68.0,55.8,30.12,NE,45,2.5,2.5,65,0.00,,,0.00,WUHU216HW,2013-04-07 01:33:00,
2013-04-06 21:39:00,67.7,55.4,30.13,ENE,68,0.9,2.5,65,0.00,,,0.00,WUHU216HW,2013-04-07 01:39:00,
2013-04-06 21:44:00,67.5,55.3,30.13,ENE,68,2.5,2.5,65,0.00,,,0.00,WUHU216HW,2013-04-07 01:44:00,
2013-04-06 21:49:00,67.3,55.5,30.13,ENE,68,1.1,2.5,66,0.00,,,0.00,WUHU216HW,2013-04-07 01:49:00,
2013-04-06 21:54:00,67.0,55.2,30.13,ENE,68,0.9,1.3,66,0.00,,,0.00,WUHU216HW,2013-04-07 01:54:00,
2013-04-06 21:59:00,66.8,55.4,30.13,NE,45,0.9,1.3,67,0.00,,,0.00,WUHU216HW,2013-04-07 01:59:00,
2013-04-06 22:04:00,66.6,55.3,30.14,NE,45,1.6,1.6,67,0.00,,,0.00,WUHU216HW,2013-04-07 02:04:00,
2013-04-06 22:09:00,66.4,55.5,30.14,NE,45,0.2,1.6,68,0.00,,,0.00,WUHU216HW,2013-04-07 02:09:00,
2013-04-06 22:14:00,66.2,55.4,30.14,NE,45,1.6,1.6,68,0.00,,,0.00,WUHU216HW,2013-04-07 02:14:00,
2013-04-06 22:20:00,66.1,55.6,30.14,ENE,68,1.1,1.8,69,0.00,,,0.00,WUHU216HW,2013-04-07 02:20:00,
2013-04-06 22:25:00,65.9,55.8,30.14,NE,45,2.0,2.0,70,0.00,,,0.00,WUHU216HW,2013-04-07 02:25:00,
2013-04-06 22:30:00,65.9,55.8,30.14,ENE,68,1.3,2.7,70,0.00,,,0.00,WUHU216HW,2013-04-07 02:30:00,
2013-04-06 22:35:00,65.9,56.3,30.14,ENE,68,1.1,3.4,71,0.00,,,0.00,WUHU216HW,2013-04-07 02:35:00,
2013-04-06 22:40:00,65.7,56.4,30.14,NE,45,1.3,2.0,72,0.00,,,0.00,WUHU216HW,2013-04-07 02:40:00,
2013-04-06 22:45:00,65.5,56.3,30.14,ENE,68,3.6,4.3,72,0.00,,,0.00,WUHU216HW,2013-04-07 02:45:00,
2013-04-06 22:50:00,65.3,56.8,30.14,NE,45,2.2,4.3,74,0.00,,,0.00,WUHU216HW,2013-04-07 02:50:00,
2013-04-06 22:55:00,65.3,56.4,30.14,ENE,68,1.3,4.3,73,0.00,,,0.00,WUHU216HW,2013-04-07 02:55:00,
2013-04-06 23:00:00,65.2,56.7,30.14,ENE,68,3.6,4.3,74,0.00,,,0.00,WUHU216HW,2013-04-07 03:00:00,
2013-04-06 23:05:00,65.0,56.5,30.14,NE,45,0.7,3.6,74,0.00,,,0.00,WUHU216HW,2013-04-07 03:05:00,
2013-04-06 23:10:00,64.8,56.4,30.14,NE,45,1.1,3.4,74,0.00,,,0.00,WUHU216HW,2013-04-07 03:10:00,
2013-04-06 23:15:00,64.8,56.7,30.14,NE,45,2.5,3.4,75,0.00,,,0.00,WUHU216HW,2013-04-07 03:15:00,
2013-04-06 23:20:00,64.6,56.5,30.13,East,90,1.3,3.4,75,0.00,,,0.00,WUHU216HW,2013-04-07 03:20:00,
2013-04-06 23:25:00,64.4,56.3,30.14,ENE,68,0.9,3.4,75,0.00,,,0.00,WUHU216HW,2013-04-07 03:25:00,
2013-04-06 23:30:00,64.4,56.7,30.13,NE,45,1.3,2.5,76,0.00,,,0.00,WUHU216HW,2013-04-07 03:30:00,
2013-04-06 23:35:00,64.3,56.5,30.13,NNE,23,2.0,2.5,76,0.00,,,0.00,WUHU216HW,2013-04-07 03:35:00,
2013-04-06 23:40:00,64.3,56.5,30.13,NE,45,2.2,2.2,76,0.00,,,0.00,WUHU216HW,2013-04-07 03:40:00,
2013-04-06 23:45:00,63.9,56.5,30.13,NNE,23,1.1,2.2,77,0.00,,,0.00,WUHU216HW,2013-04-07 03:45:00,
2013-04-06 23:50:00,63.7,56.3,30.13,NE,45,1.8,2.5,77,0.00,,,0.00,WUHU216HW,2013-04-07 03:50:00,
2013-04-06 23:55:00,63.5,56.5,30.13,NNE,23,1.6,2.5,78,0.00,,,0.00,WUHU216HW,2013-04-07 03:55:00,